Time;durP1;ratioP1;P1;durP2;ratioP2;P2;SDS_P1;SDS_P2;PMS_P1;PMS_P2;Temp;Humidity;BMP_temperature;BMP_pressure;BME280_temperature;BME280_humidity;BME280_pressure;Samples;Min_cycle;Max_cycle;Signal;HPM_P1;HPM_P2
2022/08/05 00:01:00;;;;;;;6.18;2.60;;;;;;;21.47;100.00;96344.97;4999593;28;20108;-64
2022/08/05 00:03:25;;;;;;;6.43;3.22;;;;;;;21.46;100.00;96346.97;4995349;28;20053;-68
2022/08/05 00:05:51;;;;;;;6.82;3.00;;;;;;;21.42;100.00;96339.94;5002476;28;20133;-66
2022/08/05 00:08:16;;;;;;;8.48;3.25;;;;;;;21.53;100.00;96334.81;5004991;28;20081;-66
2022/08/05 00:10:41;;;;;;;7.43;3.08;;;;;;;21.63;99.87;96341.28;5002022;28;20109;-66
2022/08/05 00:13:07;;;;;;;9.52;3.30;;;;;;;21.69;99.56;96342.25;5002155;28;20050;-65
2022/08/05 00:15:33;;;;;;;4.40;2.63;;;;;;;21.66;99.55;96338.38;5001130;28;20046;-64
2022/08/05 00:17:58;;;;;;;8.13;3.17;;;;;;;21.53;99.54;96334.81;5001215;28;20042;-66
2022/08/05 00:20:24;;;;;;;8.00;3.30;;;;;;;21.28;100.00;96336.34;4995383;28;20264;-69
2022/08/05 00:22:50;;;;;;;4.38;2.70;;;;;;;21.27;100.00;96340.38;5000014;28;20046;-69
2022/08/05 00:25:15;;;;;;;7.63;3.08;;;;;;;21.41;100.00;96341.94;4981220;28;20064;-70
2022/08/05 00:27:41;;;;;;;7.40;3.42;;;;;;;21.42;100.00;96343.47;5016929;23;20049;-63
2022/08/05 00:30:07;;;;;;;6.43;3.08;;;;;;;21.42;100.00;96345.50;5013675;28;20048;-65
2022/08/05 00:32:32;;;;;;;7.43;3.20;;;;;;;21.54;100.00;96345.50;5040930;28;20053;-62
2022/08/05 00:34:58;;;;;;;4.50;3.08;;;;;;;21.47;100.00;96342.97;5041279;28;20571;-64
2022/08/05 00:37:23;;;;;;;7.38;3.67;;;;;;;21.42;100.00;96351.84;5035322;28;20580;-63
2022/08/05 00:39:48;;;;;;;4.13;2.97;;;;;;;21.22;100.00;96348.53;5041432;28;20029;-65
2022/08/05 00:42:15;;;;;;;4.50;3.28;;;;;;;21.18;100.00;96351.41;5026321;28;20049;-63
2022/08/05 00:44:42;;;;;;;8.52;3.30;;;;;;;21.19;100.00;96358.53;5040536;28;20131;-63
2022/08/05 00:47:07;;;;;;;4.78;3.20;;;;;;;21.19;100.00;96364.09;5029731;28;20041;-62
2022/08/05 00:49:33;;;;;;;5.95;3.30;;;;;;;21.31;100.00;96359.78;5042416;28;20525;-61
2022/08/05 00:51:58;;;;;;;4.47;3.28;;;;;;;21.33;100.00;96358.09;5054007;28;20052;-63
2022/08/05 00:54:24;;;;;;;7.72;3.50;;;;;;;21.08;100.00;96358.88;5056848;28;20045;-64
2022/08/05 00:56:49;;;;;;;5.93;3.03;;;;;;;21.12;100.00;96361.53;5045573;28;20055;-64
2022/08/05 00:59:14;;;;;;;6.63;3.03;;;;;;;21.22;100.00;96368.78;5038556;28;20039;-65
2022/08/05 01:01:40;;;;;;;6.78;2.97;;;;;;;21.22;100.00;96374.34;5037522;28;20485;-65
2022/08/05 01:04:05;;;;;;;5.50;3.13;;;;;;;21.21;100.00;96372.78;5039336;28;20501;-62
2022/08/05 01:06:31;;;;;;;6.50;3.22;;;;;;;21.16;100.00;96378.94;5048736;28;20072;-63
2022/08/05 01:08:56;;;;;;;7.65;3.22;;;;;;;21.03;100.00;96378.13;5047031;28;20033;-64
2022/08/05 01:11:28;;;;;;;5.57;3.55;;;;;;;21.03;100.00;96383.69;5019950;28;20045;-63
2022/08/05 01:14:03;;;;;;;7.70;3.53;;;;;;;21.17;100.00;96394.41;5043918;28;20067;-64
2022/08/05 01:16:36;;;;;;;4.85;2.85;;;;;;;21.18;100.00;96387.63;5031508;28;20072;-64
2022/08/05 01:19:18;;;;;;;8.07;3.03;;;;;;;21.19;100.00;96401.09;5043241;28;20043;-63
2022/08/05 01:22:05;;;;;;;6.22;3.05;;;;;;;21.25;100.00;96390.19;5043079;28;20517;-63
2022/08/05 01:24:39;;;;;;;9.40;3.38;;;;;;;20.68;100.00;96398.22;5043902;28;20095;-63
2022/08/05 01:27:23;;;;;;;3.88;2.70;;;;;;;20.59;100.00;96398.06;5037896;28;20374;-63
2022/08/05 01:29:54;;;;;;;4.13;2.85;;;;;;;20.73;100.00;96392.13;5037401;28;20041;-64
2022/08/05 01:32:22;;;;;;;6.40;3.80;;;;;;;20.80;100.00;96393.91;5038831;28;20190;-64
2022/08/05 01:34:52;;;;;;;10.20;3.13;;;;;;;20.92;100.00;96392.38;5044515;28;20048;-63
2022/08/05 01:37:34;;;;;;;7.40;3.33;;;;;;;20.93;100.00;96391.16;5038350;28;20033;-62
2022/08/05 01:40:01;;;;;;;5.75;3.78;;;;;;;20.99;100.00;96390.16;5043546;28;20033;-62
2022/08/05 01:42:30;;;;;;;5.88;3.30;;;;;;;20.80;100.00;96399.47;5038560;28;20041;-62
2022/08/05 01:44:57;;;;;;;7.38;3.53;;;;;;;21.00;100.00;96408.41;5004071;28;20047;-62
2022/08/05 01:47:24;;;;;;;7.00;3.28;;;;;;;21.21;100.00;96414.56;5036205;28;20044;-62
2022/08/05 01:49:53;;;;;;;6.03;3.35;;;;;;;21.30;100.00;96411.13;5044048;28;20041;-62
2022/08/05 01:52:20;;;;;;;5.90;3.47;;;;;;;21.41;100.00;96417.16;5030146;28;20041;-62
2022/08/05 01:54:50;;;;;;;9.45;3.20;;;;;;;21.49;100.00;96418.50;5015700;28;20314;-62
2022/08/05 01:57:22;;;;;;;6.40;3.15;;;;;;;21.58;100.00;96429.00;5037751;28;20126;-62
2022/08/05 01:59:50;;;;;;;6.22;2.95;;;;;;;21.71;100.00;96435.31;5043919;28;20041;-65
2022/08/05 02:02:18;;;;;;;4.93;3.05;;;;;;;21.66;99.68;96444.28;5049144;28;20045;-64
2022/08/05 02:04:45;;;;;;;5.93;3.25;;;;;;;21.49;100.00;96440.03;5047609;28;20104;-63
2022/08/05 02:07:10;;;;;;;4.70;2.90;;;;;;;21.37;100.00;96449.91;5027355;28;20048;-63
2022/08/05 02:09:36;;;;;;;7.35;3.40;;;;;;;21.26;100.00;96455.78;5058352;28;20505;-63
2022/08/05 02:12:13;;;;;;;6.53;3.35;;;;;;;21.19;100.00;96478.28;5045081;28;20033;-61
2022/08/05 02:15:07;;;;;;;5.45;3.30;;;;;;;21.10;100.00;96473.34;5046497;28;20529;-64
2022/08/05 02:17:57;;;;;;;5.30;2.70;;;;;;;21.23;100.00;96478.19;5055704;28;20048;-62
2022/08/05 02:20:26;;;;;;;4.95;3.28;;;;;;;21.22;100.00;96480.19;5047636;28;20115;-63
2022/08/05 02:22:59;;;;;;;4.18;2.92;;;;;;;21.19;100.00;96478.28;5044110;28;20516;-62
2022/08/05 02:25:30;;;;;;;7.15;3.05;;;;;;;21.18;100.00;96482.31;5036769;28;20481;-64
2022/08/05 02:27:57;;;;;;;4.30;2.92;;;;;;;21.26;100.00;96492.00;5044401;28;20041;-65
2022/08/05 02:30:24;;;;;;;5.75;3.67;;;;;;;21.06;100.00;96486.59;5039036;28;20343;-64
2022/08/05 02:32:52;;;;;;;5.32;3.42;;;;;;;20.70;100.00;96482.03;5042897;28;20041;-65
2022/08/05 02:35:21;;;;;;;6.25;3.30;;;;;;;20.35;100.00;96478.97;5029647;28;20086;-65
2022/08/05 02:37:49;;;;;;;6.82;3.13;;;;;;;20.29;100.00;96479.91;5042830;28;20041;-63
2022/08/05 02:40:19;;;;;;;7.25;3.53;;;;;;;20.22;100.00;96480.88;5037668;28;20043;-63
2022/08/05 02:42:46;;;;;;;5.70;3.97;;;;;;;20.23;100.00;96474.88;5043150;28;20045;-63
2022/08/05 02:45:14;;;;;;;4.95;3.10;;;;;;;20.29;100.00;96482.69;5044314;28;20041;-65
2022/08/05 02:47:41;;;;;;;4.70;3.50;;;;;;;20.37;100.00;96476.53;5060030;28;20052;-64
2022/08/05 02:50:08;;;;;;;6.20;3.80;;;;;;;20.47;100.00;96485.03;5031300;28;20130;-64
2022/08/05 02:52:35;;;;;;;7.30;3.08;;;;;;;20.57;100.00;96478.41;5042343;28;20056;-65
2022/08/05 02:55:01;;;;;;;4.50;3.08;;;;;;;20.78;100.00;96485.44;5042418;28;20404;-65
2022/08/05 02:57:28;;;;;;;4.40;3.17;;;;;;;20.98;100.00;96485.25;5019113;28;20127;-65
2022/08/05 02:59:53;;;;;;;6.68;3.38;;;;;;;21.19;100.00;96483.84;5042557;28;20037;-65
2022/08/05 03:02:27;;;;;;;5.40;3.25;;;;;;;21.37;100.00;96481.34;5035152;28;20128;-65
2022/08/05 03:04:55;;;;;;;3.60;2.85;;;;;;;21.68;100.00;96472.47;5041647;28;20055;-65
2022/08/05 03:07:23;;;;;;;9.00;3.42;;;;;;;21.83;100.00;96472.78;5036418;28;20044;-65
2022/08/05 03:09:49;;;;;;;5.90;2.95;;;;;;;21.85;100.00;96472.34;5030629;28;20486;-65
2022/08/05 03:12:31;;;;;;;4.07;3.20;;;;;;;21.76;100.00;96473.00;5032822;28;20049;-63
2022/08/05 03:14:57;;;;;;;3.88;3.10;;;;;;;21.60;100.00;96471.13;5041419;28;20044;-65
2022/08/05 03:17:22;;;;;;;7.63;3.17;;;;;;;21.42;100.00;96468.06;5036424;28;20571;-65
2022/08/05 03:19:48;;;;;;;5.47;3.40;;;;;;;21.51;100.00;96466.22;5041749;28;20059;-64
2022/08/05 03:22:13;;;;;;;4.72;3.35;;;;;;;21.45;100.00;96468.00;5035149;28;20044;-63
2022/08/05 03:24:41;;;;;;;7.82;3.60;;;;;;;21.31;100.00;96462.81;5042310;28;20052;-64
2022/08/05 03:27:06;;;;;;;7.80;3.67;;;;;;;21.28;100.00;96467.25;5036181;28;20064;-63
2022/08/05 03:29:32;;;;;;;8.65;3.63;;;;;;;21.24;100.00;96465.81;5038256;28;20072;-64
2022/08/05 03:31:57;;;;;;;16.20;3.72;;;;;;;21.16;100.00;96466.03;5033822;28;20064;-64
2022/08/05 03:34:24;;;;;;;6.00;3.50;;;;;;;21.42;100.00;96477.19;5027311;28;20051;-64
2022/08/05 03:36:49;;;;;;;6.68;3.53;;;;;;;21.63;100.00;96483.41;5035615;28;20102;-64
2022/08/05 03:39:15;;;;;;;6.53;3.67;;;;;;;21.77;100.00;96472.56;5033711;28;20527;-64
2022/08/05 03:41:40;;;;;;;4.40;3.08;;;;;;;21.96;100.00;96481.91;5041666;28;20044;-65
2022/08/05 03:44:05;;;;;;;4.80;2.42;;;;;;;22.04;100.00;96470.53;5028904;28;20502;-62
2022/08/05 03:46:31;;;;;;;9.38;3.47;;;;;;;21.88;100.00;96458.28;5040069;28;20497;-63
2022/08/05 03:48:57;;;;;;;5.80;3.28;;;;;;;21.69;100.00;96462.88;5041003;28;20099;-64
2022/08/05 03:51:41;;;;;;;7.07;3.30;;;;;;;21.39;100.00;96455.81;5034078;28;20924;-64
2022/08/05 03:54:18;;;;;;;11.43;3.72;;;;;;;21.69;100.00;96448.94;5044013;28;20075;-63
2022/08/05 03:56:45;;;;;;;5.20;2.92;;;;;;;21.79;100.00;96455.41;5043701;28;20045;-64
2022/08/05 03:59:16;;;;;;;6.80;3.70;;;;;;;21.77;100.00;96455.84;5028541;28;20041;-62
2022/08/05 04:01:44;;;;;;;6.57;3.53;;;;;;;21.70;100.00;96444.94;5041074;28;20045;-62
2022/08/05 04:04:13;;;;;;;4.47;3.15;;;;;;;21.82;100.00;96443.34;5042402;28;20075;-65
2022/08/05 04:06:40;;;;;;;4.63;3.40;;;;;;;21.76;100.00;96431.22;5041823;28;20045;-65
2022/08/05 04:09:07;;;;;;;4.55;3.28;;;;;;;21.69;100.00;96423.84;5023995;28;20090;-64
2022/08/05 04:11:35;;;;;;;6.85;3.67;;;;;;;21.70;100.00;96425.41;5041306;28;20072;-63
2022/08/05 04:14:01;;;;;;;6.47;3.65;;;;;;;21.71;100.00;96403.88;5041109;28;20428;-65
2022/08/05 04:16:27;;;;;;;11.23;3.72;;;;;;;21.55;100.00;96408.38;5035184;28;20366;-65
2022/08/05 04:18:53;;;;;;;5.88;2.97;;;;;;;21.50;100.00;96408.13;5040622;28;20113;-65
2022/08/05 04:21:18;;;;;;;6.47;3.17;;;;;;;21.62;100.00;96407.34;5026774;28;20498;-65
2022/08/05 04:23:44;;;;;;;7.10;2.90;;;;;;;21.84;100.00;96412.22;5040182;28;20044;-65
2022/08/05 04:26:09;;;;;;;7.75;3.40;;;;;;;21.98;100.00;96408.97;5017790;28;20090;-65
2022/08/05 04:28:35;;;;;;;4.32;3.08;;;;;;;22.04;100.00;96411.97;5031020;28;20120;-65
2022/08/05 04:31:01;;;;;;;4.40;2.95;;;;;;;22.02;100.00;96406.88;5040922;28;20502;-65
2022/08/05 04:33:27;;;;;;;4.93;3.33;;;;;;;22.02;100.00;96408.84;5035242;28;20442;-65
2022/08/05 04:35:53;;;;;;;6.10;3.08;;;;;;;22.05;100.00;96410.75;5033296;28;20052;-65
2022/08/05 04:38:18;;;;;;;5.60;3.00;;;;;;;22.08;100.00;96413.41;5033317;28;20041;-64
2022/08/05 04:40:43;;;;;;;5.63;3.33;;;;;;;21.94;100.00;96425.03;5040945;28;20080;-64
2022/08/05 04:43:09;;;;;;;4.82;3.20;;;;;;;21.84;100.00;96423.38;5035559;28;20103;-64
2022/08/05 04:45:34;;;;;;;6.25;3.53;;;;;;;22.22;100.00;96428.09;5040462;28;20109;-65
2022/08/05 04:48:08;;;;;;;5.10;3.60;;;;;;;22.33;100.00;96434.91;5038688;28;20037;-65
2022/08/05 04:50:39;;;;;;;5.95;3.33;;;;;;;22.26;100.00;96437.94;5036674;28;20059;-65
2022/08/05 04:53:04;;;;;;;7.45;3.45;;;;;;;22.05;100.00;96449.78;5035775;28;20088;-63
2022/08/05 04:55:29;;;;;;;8.25;3.10;;;;;;;21.62;100.00;96456.75;5022228;28;20069;-64
2022/08/05 04:57:55;;;;;;;7.13;3.38;;;;;;;21.80;100.00;96458.97;5040916;28;20128;-65
2022/08/05 05:00:20;;;;;;;7.80;3.63;;;;;;;22.02;100.00;96451.47;5015251;28;20040;-64
2022/08/05 05:02:45;;;;;;;6.40;3.45;;;;;;;22.12;100.00;96450.31;5032806;28;20076;-65
2022/08/05 05:05:11;;;;;;;4.45;3.20;;;;;;;22.34;100.00;96446.84;5024808;28;20041;-64
2022/08/05 05:07:36;;;;;;;5.50;3.25;;;;;;;22.49;100.00;96439.53;5022538;28;20404;-65
2022/08/05 05:10:04;;;;;;;6.35;2.95;;;;;;;22.54;100.00;96454.91;5021643;28;20040;-64
2022/08/05 05:12:31;;;;;;;4.97;2.85;;;;;;;22.74;100.00;96451.81;5031317;28;20050;-65
2022/08/05 05:14:56;;;;;;;6.50;3.70;;;;;;;22.64;100.00;96456.56;5040624;28;20044;-65
2022/08/05 05:17:21;;;;;;;6.20;3.83;;;;;;;22.41;100.00;96460.53;5035525;28;20064;-66
2022/08/05 05:19:47;;;;;;;5.80;3.17;;;;;;;22.80;100.00;96446.44;5030513;28;20068;-65
2022/08/05 05:22:12;;;;;;;6.45;3.60;;;;;;;23.29;100.00;96445.84;5027260;28;20037;-63
2022/08/05 05:24:38;;;;;;;4.15;3.08;;;;;;;23.55;100.00;96451.22;5019082;28;20041;-67
2022/08/05 05:27:03;;;;;;;6.07;2.97;;;;;;;22.96;100.00;96453.81;5012433;28;20098;-63
2022/08/05 05:29:29;;;;;;;7.28;3.58;;;;;;;22.38;100.00;96466.25;5034731;28;20056;-64
2022/08/05 05:31:55;;;;;;;5.30;3.28;;;;;;;22.10;100.00;96463.16;5021980;28;20049;-65
2022/08/05 05:34:21;;;;;;;4.25;3.00;;;;;;;22.53;100.00;96465.31;5035108;28;20151;-65
2022/08/05 05:36:47;;;;;;;8.02;3.28;;;;;;;23.96;100.00;96463.22;5051118;28;20127;-64
2022/08/05 05:39:12;;;;;;;3.70;2.80;;;;;;;25.26;93.48;96464.88;5039351;28;20049;-66
2022/08/05 05:41:37;;;;;;;5.70;2.80;;;;;;;26.64;81.57;96477.50;5041592;28;20051;-62
2022/08/05 05:44:03;;;;;;;4.93;3.00;;;;;;;27.25;76.59;96487.59;5041189;28;20153;-61
2022/08/05 05:46:29;;;;;;;4.72;2.78;;;;;;;28.64;71.18;96486.69;5043541;28;20516;-62
2022/08/05 05:48:54;;;;;;;7.07;3.00;;;;;;;29.14;66.47;96486.53;5044977;28;20052;-64
2022/08/05 05:51:24;;;;;;;6.25;2.67;;;;;;;30.56;61.06;96493.28;5038508;28;20045;-63
2022/08/05 05:53:50;;;;;;;5.60;2.28;;;;;;;31.56;55.72;96496.97;5043728;28;20041;-64
2022/08/05 05:56:19;;;;;;;4.80;2.45;;;;;;;32.94;52.13;96509.91;5029122;28;20033;-65
2022/08/05 05:58:46;;;;;;;2.73;2.07;;;;;;;32.46;50.89;96511.06;5036786;28;20090;-64
2022/08/05 06:01:12;;;;;;;7.00;2.28;;;;;;;29.63;59.72;96511.34;5031532;28;20041;-64
2022/08/05 06:03:38;;;;;;;4.78;2.40;;;;;;;28.76;63.68;96513.00;5056719;28;20049;-63
2022/08/05 06:06:05;;;;;;;6.05;2.35;;;;;;;28.68;64.89;96506.22;5053006;28;20456;-61
2022/08/05 06:08:31;;;;;;;3.25;2.10;;;;;;;29.00;65.93;96507.09;5032596;28;20044;-64
2022/08/05 06:10:57;;;;;;;7.45;3.20;;;;;;;29.76;63.79;96510.97;5023819;28;20065;-64
2022/08/05 06:13:22;;;;;;;5.85;2.60;;;;;;;30.26;62.22;96508.50;5022022;28;20555;-63
2022/08/05 06:15:47;;;;;;;4.90;1.92;;;;;;;30.58;61.33;96525.44;5021102;28;20094;-63
2022/08/05 06:18:13;;;;;;;8.40;3.03;;;;;;;30.49;61.53;96531.28;5019212;28;20056;-63
2022/08/05 06:20:38;;;;;;;5.15;2.15;;;;;;;30.16;63.21;96540.28;5025092;28;20099;-62
2022/08/05 06:23:04;;;;;;;3.67;2.53;;;;;;;29.82;64.15;96560.56;5040028;28;20041;-60
2022/08/05 06:25:29;;;;;;;6.70;2.67;;;;;;;29.71;64.05;96566.84;5022075;28;20490;-64
2022/08/05 06:27:55;;;;;;;3.72;2.15;;;;;;;29.83;64.08;96567.75;5038461;28;20056;-64
2022/08/05 06:30:20;;;;;;;4.28;2.60;;;;;;;30.49;61.83;96590.63;5044082;28;20099;-65
2022/08/05 06:32:46;;;;;;;6.38;2.28;;;;;;;30.68;61.40;96599.47;5043355;28;20079;-63
2022/08/05 06:35:11;;;;;;;4.65;2.15;;;;;;;31.77;56.65;96614.34;5043600;28;20090;-63
2022/08/05 06:37:37;;;;;;;4.38;2.53;;;;;;;32.64;53.75;96606.16;5043014;28;20502;-63
2022/08/05 06:40:03;;;;;;;6.55;2.47;;;;;;;32.66;52.12;96608.47;5024970;28;20449;-64
2022/08/05 06:42:28;;;;;;;8.43;2.38;;;;;;;32.94;51.25;96605.56;5041029;28;20037;-65
2022/08/05 06:44:54;;;;;;;3.65;2.17;;;;;;;33.93;46.80;96604.09;5039747;28;20055;-63
2022/08/05 06:47:19;;;;;;;5.95;2.05;;;;;;;35.70;42.79;96594.03;5037623;28;20044;-64
2022/08/05 06:49:46;;;;;;;3.80;2.08;;;;;;;37.04;39.59;96615.16;5041802;28;20090;-64
2022/08/05 06:52:11;;;;;;;3.88;1.95;;;;;;;37.40;37.28;96614.72;5050502;22;20637;-68
2022/08/05 06:54:37;;;;;;;5.32;1.50;;;;;;;37.79;37.01;96632.31;5022434;28;20140;-68
2022/08/05 06:57:03;;;;;;;3.08;1.65;;;;;;;38.09;35.81;96623.31;5019851;28;20049;-68
2022/08/05 06:59:28;;;;;;;9.50;2.25;;;;;;;37.83;35.20;96624.97;5034864;28;20041;-69
2022/08/05 07:01:54;;;;;;;6.83;1.60;;;;;;;38.32;32.83;96619.94;5022037;28;20041;-69
2022/08/05 07:04:19;;;;;;;4.95;1.75;;;;;;;38.19;33.25;96627.25;5018079;28;20295;-69
2022/08/05 07:06:44;;;;;;;5.30;1.40;;;;;;;39.26;30.26;96634.44;5020333;28;20052;-69
2022/08/05 07:09:10;;;;;;;4.45;1.50;;;;;;;39.31;30.57;96639.22;5018208;28;20037;-67
2022/08/05 07:11:35;;;;;;;2.95;1.30;;;;;;;38.62;31.56;96645.97;5011634;28;20053;-69
2022/08/05 07:16:48;;;;;;;2.53;1.70;;;;;;;36.93;34.47;96653.25;5021881;28;20465;-69
2022/08/05 07:19:14;;;;;;;2.60;1.70;;;;;;;37.23;33.52;96651.41;4999341;28;20046;-68
2022/08/05 07:21:40;;;;;;;2.00;1.40;;;;;;;37.99;31.14;96653.69;5022167;28;20037;-70
2022/08/05 07:24:06;;;;;;;4.68;1.88;;;;;;;38.24;30.38;96648.47;5017368;28;20037;-67
2022/08/05 07:26:31;;;;;;;5.60;1.58;;;;;;;38.36;29.51;96652.59;5010757;28;20595;-67
2022/08/05 07:28:56;;;;;;;7.32;1.73;;;;;;;39.35;28.31;96653.94;5004496;28;20390;-69
2022/08/05 07:31:22;;;;;;;4.90;1.83;;;;;;;37.63;30.70;96654.22;4989661;28;20065;-69
2022/08/05 07:33:47;;;;;;;7.85;1.77;;;;;;;38.68;29.06;96659.38;5016073;28;20057;-68
2022/08/05 07:36:13;;;;;;;5.78;1.50;;;;;;;39.14;27.88;96651.16;5019246;28;20044;-68
2022/08/05 07:38:39;;;;;;;4.70;1.80;;;;;;;38.19;29.06;96666.53;5022245;28;20461;-69
2022/08/05 07:41:07;;;;;;;3.78;1.60;;;;;;;36.11;32.82;96657.69;5009136;28;20045;-68
2022/08/05 07:43:33;;;;;;;3.63;1.73;;;;;;;35.43;34.50;96667.09;5021719;28;20037;-68
2022/08/05 07:45:58;;;;;;;4.57;1.77;;;;;;;37.83;31.25;96669.91;5003719;28;20596;-68
2022/08/05 07:48:25;;;;;;;9.77;1.60;;;;;;;37.07;29.33;96673.97;5017039;28;20690;-68
2022/08/05 07:50:50;;;;;;;4.95;1.80;;;;;;;35.88;31.82;96674.34;5020756;28;20311;-68
2022/08/05 07:53:15;;;;;;;5.60;1.50;;;;;;;36.87;30.04;96683.19;5017130;28;20049;-68
2022/08/05 07:55:41;;;;;;;5.07;1.83;;;;;;;33.22;34.83;96689.84;5017044;28;20046;-69
2022/08/05 07:58:06;;;;;;;5.20;1.88;;;;;;;31.27;38.91;96677.19;5014315;28;20126;-69
2022/08/05 08:00:32;;;;;;;6.07;1.77;;;;;;;31.48;39.32;96677.03;5027013;28;20045;-69
2022/08/05 08:02:57;;;;;;;6.32;1.98;;;;;;;33.26;36.24;96674.13;5025685;28;20042;-68
2022/08/05 08:05:23;;;;;;;7.53;1.83;;;;;;;34.96;32.79;96676.66;4993145;28;20061;-69
2022/08/05 08:07:49;;;;;;;4.43;2.13;;;;;;;33.38;36.05;96682.59;5021288;28;20056;-67
2022/08/05 08:10:14;;;;;;;8.02;2.00;;;;;;;34.50;33.49;96694.63;5005861;28;20050;-67
2022/08/05 08:12:39;;;;;;;4.53;1.80;;;;;;;35.91;31.39;96684.66;5011190;28;20037;-68
2022/08/05 08:15:08;;;;;;;9.65;2.10;;;;;;;31.64;36.96;96696.16;5016397;28;20123;-68
2022/08/05 08:17:34;;;;;;;7.30;1.90;;;;;;;31.26;38.80;96689.81;5020878;28;20367;-70
2022/08/05 08:19:59;;;;;;;6.22;2.00;;;;;;;33.87;34.95;96697.88;5020086;28;20060;-69
2022/08/05 08:22:25;;;;;;;6.10;2.13;;;;;;;36.20;30.69;96702.91;5012774;28;20053;-69
2022/08/05 08:24:51;;;;;;;4.43;2.08;;;;;;;36.09;30.69;96714.47;5015066;28;20677;-68
2022/08/05 08:27:17;;;;;;;5.28;2.10;;;;;;;37.43;29.13;96710.69;5016058;28;20050;-70
2022/08/05 08:29:42;;;;;;;5.88;1.75;;;;;;;34.25;33.38;96711.59;5021306;28;20157;-70
2022/08/05 08:32:08;;;;;;;6.20;2.05;;;;;;;31.97;38.60;96701.13;5016615;28;20057;-69
2022/08/05 08:34:33;;;;;;;7.13;2.25;;;;;;;30.18;42.11;96705.16;5021737;28;20048;-68
2022/08/05 08:36:59;;;;;;;6.38;2.05;;;;;;;29.41;44.46;96707.34;5014815;28;20492;-69
2022/08/05 08:39:24;;;;;;;11.02;2.67;;;;;;;29.05;46.24;96711.44;5014664;28;20042;-68
2022/08/05 08:41:51;;;;;;;7.80;2.13;;;;;;;29.33;46.06;96704.19;5021063;28;20037;-68
2022/08/05 08:44:18;;;;;;;8.68;2.33;;;;;;;29.55;45.59;96709.31;5016171;28;20370;-69
2022/08/05 08:46:46;;;;;;;9.20;2.17;;;;;;;29.60;47.00;96704.22;5024579;28;20133;-68
2022/08/05 08:49:13;;;;;;;11.85;2.58;;;;;;;29.44;46.42;96705.56;5033555;28;20053;-71
2022/08/05 08:51:40;;;;;;;5.65;2.50;;;;;;;29.19;46.05;96712.66;5039005;28;20045;-68
2022/08/05 08:54:06;;;;;;;7.47;2.80;;;;;;;28.93;47.68;96705.63;5022454;28;20095;-69
2022/08/05 08:56:32;;;;;;;5.93;2.33;;;;;;;30.71;42.62;96713.59;5020646;28;20440;-69
2022/08/05 08:58:59;;;;;;;5.95;2.30;;;;;;;31.44;40.61;96717.66;5014337;28;20045;-69
2022/08/05 09:01:24;;;;;;;9.07;2.45;;;;;;;31.34;41.17;96724.81;5004601;28;20067;-68
2022/08/05 09:03:52;;;;;;;6.50;2.53;;;;;;;29.28;46.10;96726.63;5020628;28;20042;-69
2022/08/05 09:06:18;;;;;;;4.45;2.35;;;;;;;29.17;46.99;96721.63;5006941;28;20056;-68
2022/08/05 09:08:43;;;;;;;11.88;3.08;;;;;;;30.51;45.48;96708.81;5021296;28;20045;-68
2022/08/05 09:11:11;;;;;;;5.05;2.38;;;;;;;30.54;43.60;96708.59;5018960;28;20050;-68
2022/08/05 09:13:37;;;;;;;4.68;2.45;;;;;;;29.98;45.72;96714.44;5024324;28;20096;-70
2022/08/05 09:16:03;;;;;;;5.05;2.38;;;;;;;32.62;39.97;96724.97;5023188;28;20103;-69
2022/08/05 09:18:29;;;;;;;8.85;2.42;;;;;;;30.64;42.21;96715.59;5019458;28;20444;-69
2022/08/05 09:20:54;;;;;;;9.75;2.20;;;;;;;29.17;46.85;96724.44;5018922;28;20095;-68
2022/08/05 09:23:20;;;;;;;7.25;2.40;;;;;;;29.96;43.47;96731.09;5019074;28;20066;-68
2022/08/05 09:25:51;;;;;;;7.38;2.50;;;;;;;29.16;46.65;96731.38;5023780;28;20541;-68
2022/08/05 09:28:22;;;;;;;4.68;2.05;;;;;;;29.00;45.54;96734.69;5010974;28;20041;-68
2022/08/05 09:31:03;;;;;;;3.20;2.20;;;;;;;29.36;46.15;96733.44;5024517;28;20041;-68
2022/08/05 09:33:29;;;;;;;14.15;2.60;;;;;;;28.97;46.61;96730.78;5022166;28;20046;-69
2022/08/05 09:36:03;;;;;;;5.53;2.20;;;;;;;29.19;47.13;96723.94;5025352;28;20071;-69
2022/08/05 09:38:30;;;;;;;4.32;2.50;;;;;;;29.09;44.58;96726.88;5024051;28;20482;-68
2022/08/05 09:41:04;;;;;;;8.05;2.42;;;;;;;29.35;45.21;96721.38;5025056;28;20049;-68
2022/08/05 09:43:36;;;;;;;6.38;2.60;;;;;;;29.04;45.27;96716.28;5007012;28;20045;-68
2022/08/05 09:46:05;;;;;;;8.63;2.42;;;;;;;28.88;46.94;96716.81;5024804;28;20041;-68
2022/08/05 09:48:32;;;;;;;12.98;2.83;;;;;;;29.15;47.34;96713.69;5023228;28;20497;-68
2022/08/05 09:51:04;;;;;;;6.90;2.55;;;;;;;29.41;46.17;96707.34;5023764;28;20045;-69
2022/08/05 09:53:49;;;;;;;9.65;2.50;;;;;;;28.68;47.84;96707.03;5022376;28;20072;-69
2022/08/05 09:56:24;;;;;;;8.90;2.40;;;;;;;29.04;47.77;96693.72;5009802;28;20053;-68
2022/08/05 09:59:03;;;;;;;5.20;2.42;;;;;;;28.56;48.55;96691.25;5024610;28;20041;-68
2022/08/05 10:01:32;;;;;;;9.13;2.92;;;;;;;28.00;49.31;96688.19;5021986;28;20044;-68
2022/08/05 10:04:03;;;;;;;7.33;2.40;;;;;;;28.30;48.82;96685.41;5024469;28;20041;-67
2022/08/05 10:06:29;;;;;;;5.30;2.78;;;;;;;29.04;48.35;96688.09;5003807;28;20120;-67
2022/08/05 10:09:08;;;;;;;6.63;2.55;;;;;;;28.89;48.88;96682.50;5023752;28;20055;-69
2022/08/05 10:11:33;;;;;;;7.90;2.20;;;;;;;29.19;48.02;96671.16;5023095;28;20050;-68
2022/08/05 10:13:59;;;;;;;5.68;2.40;;;;;;;29.15;46.44;96673.41;5025303;28;20045;-67
2022/08/05 10:16:33;;;;;;;9.80;2.65;;;;;;;30.27;45.96;96670.28;5009264;28;20063;-69
2022/08/05 10:19:00;;;;;;;4.68;1.90;;;;;;;29.71;45.54;96673.31;5023524;28;20494;-68
2022/08/05 10:21:26;;;;;;;6.05;2.22;;;;;;;29.80;45.51;96666.75;5017121;28;20547;-69
2022/08/05 10:23:53;;;;;;;6.10;2.40;;;;;;;31.22;42.21;96653.28;5025161;28;20049;-69
2022/08/05 10:26:19;;;;;;;9.20;2.55;;;;;;;30.83;43.15;96644.53;5014273;28;20394;-69
2022/08/05 10:28:46;;;;;;;3.90;1.88;;;;;;;30.87;42.50;96650.72;5019508;28;20103;-69
2022/08/05 10:31:14;;;;;;;4.55;1.98;;;;;;;30.57;44.05;96648.22;5015815;28;20180;-70
2022/08/05 10:33:41;;;;;;;4.63;2.10;;;;;;;30.72;42.79;96650.09;5005418;28;20045;-68
2022/08/05 10:36:06;;;;;;;5.35;2.20;;;;;;;30.51;43.81;96649.47;5009982;28;20297;-69
2022/08/05 10:38:35;;;;;;;4.72;2.00;;;;;;;30.18;43.17;96648.66;5018619;28;20054;-68
2022/08/05 10:41:21;;;;;;;4.30;2.10;;;;;;;30.87;42.49;96645.84;4990123;28;20041;-68
2022/08/05 10:43:53;;;;;;;8.98;2.15;;;;;;;30.79;41.71;96638.34;5010560;28;20045;-68
2022/08/05 10:46:22;;;;;;;4.25;2.33;;;;;;;31.70;40.02;96650.88;5009517;28;20109;-69
2022/08/05 10:48:49;;;;;;;;;;;;;;;30.83;42.03;96636.06;5013622;28;20038;-68
2022/08/05 10:51:20;;;;;;;4.25;2.55;;;;;;;31.20;41.72;96646.56;4991656;28;19917;-68
2022/08/05 10:53:56;;;;;;;6.00;2.30;;;;;;;30.45;43.04;96640.94;5024942;28;20045;-68
2022/08/05 10:56:27;;;;;;;3.72;2.20;;;;;;;31.72;40.74;96634.94;5022697;28;20060;-69
2022/08/05 10:58:52;;;;;;;7.22;2.88;;;;;;;30.96;42.93;96638.47;5005573;28;20475;-68
2022/08/05 11:01:31;;;;;;;8.82;2.30;;;;;;;30.56;44.36;96643.84;5009209;28;20049;-68
2022/08/05 11:04:24;;;;;;;8.88;2.38;;;;;;;30.22;44.17;96639.97;5024487;28;20041;-68
2022/08/05 11:07:05;;;;;;;5.88;2.55;;;;;;;29.89;44.22;96633.50;5008685;28;20041;-68
2022/08/05 11:09:55;;;;;;;4.82;2.80;;;;;;;30.71;41.05;96640.84;5023642;28;20041;-68
2022/08/05 11:12:23;;;;;;;5.22;2.30;;;;;;;31.56;38.90;96633.59;5036535;28;20041;-68
2022/08/05 11:15:14;;;;;;;7.75;3.00;;;;;;;32.04;38.86;96629.09;5036967;28;20041;-68
2022/08/05 11:17:40;;;;;;;5.07;2.92;;;;;;;31.98;40.98;96634.72;5023579;28;20041;-67
2022/08/05 11:20:27;;;;;;;5.22;2.08;;;;;;;31.45;38.88;96628.63;5009651;28;20121;-68
2022/08/05 11:22:53;;;;;;;5.20;2.25;;;;;;;31.83;37.67;96632.09;5002869;28;20044;-68
2022/08/05 11:25:43;;;;;;;6.45;2.38;;;;;;;31.44;38.70;96626.34;4980654;28;20037;-69
2022/08/05 11:28:08;;;;;;;5.65;2.13;;;;;;;31.59;38.58;96618.44;5018241;28;20132;-69
2022/08/05 11:33:30;;;;;;;4.68;2.17;;;;;;;31.63;39.12;96607.63;5014077;28;22248;-70
2022/08/05 11:36:01;;;;;;;9.93;2.25;;;;;;;30.71;40.37;96611.81;5023836;28;20096;-69
2022/08/05 11:38:41;;;;;;;9.02;2.30;;;;;;;30.83;39.95;96616.28;5015164;28;20509;-69